createdAt,value
2017-05-18T00:00:51.645Z,7.6
2017-05-18T00:01:51.635Z,7.6
2017-05-18T00:02:51.632Z,7.47
2017-05-18T00:03:51.617Z,7.54
2017-05-18T00:04:51.610Z,7.52
2017-05-18T00:05:51.593Z,7.5
2017-05-18T00:06:51.593Z,7.41
2017-05-18T00:07:51.582Z,7.54
2017-05-18T00:08:51.565Z,7.5
2017-05-18T00:09:51.555Z,7.5
2017-05-18T00:10:51.545Z,7.55
2017-05-18T00:11:51.537Z,7.6
2017-05-18T00:12:51.525Z,7.5
2017-05-18T00:13:51.516Z,7.55
2017-05-18T00:14:51.507Z,7.57
2017-05-18T00:15:51.194Z,7.5
2017-05-18T00:16:51.487Z,7.55
2017-05-18T00:17:51.475Z,7.57
2017-05-18T00:18:51.460Z,7.45
2017-05-18T00:19:51.455Z,7.54
2017-05-18T00:20:51.445Z,7.48
2017-05-18T00:21:51.436Z,7.52
2017-05-18T00:22:51.422Z,7.54
2017-05-18T00:23:51.411Z,7.47
2017-05-18T00:24:51.401Z,7.42
2017-05-18T00:25:51.456Z,7.41
2017-05-18T00:26:51.379Z,7.58
2017-05-18T00:27:51.375Z,7.37
2017-05-18T00:28:51.363Z,7.48
2017-05-18T00:29:51.348Z,7.37
2017-05-18T00:30:51.342Z,7.33
2017-05-18T00:31:51.328Z,7.3
2017-05-18T00:32:51.322Z,7.39
2017-05-18T00:33:51.311Z,7.33
2017-05-18T00:34:51.301Z,7.3
2017-05-18T00:35:51.290Z,7.19
2017-05-18T00:36:51.282Z,7.19
2017-05-18T00:37:51.272Z,7.15
2017-05-18T00:38:51.261Z,7.15
2017-05-18T00:39:51.245Z,7.16
2017-05-18T00:40:51.234Z,7.09
2017-05-18T00:41:51.235Z,7.05
2017-05-18T00:42:51.225Z,6.93
2017-05-18T00:43:51.215Z,6.94
2017-05-18T00:44:51.200Z,6.96
2017-05-18T00:45:51.195Z,6.96
2017-05-18T00:46:51.185Z,6.9
2017-05-18T00:47:51.173Z,6.99
2017-05-18T00:48:51.162Z,6.97
2017-05-18T00:49:51.160Z,6.97
2017-05-18T00:50:51.147Z,7.07
2017-05-18T00:51:51.131Z,7.04
2017-05-18T00:52:51.129Z,7.09
2017-05-18T00:53:51.113Z,7.01
2017-05-18T00:54:51.102Z,7
2017-05-18T00:55:51.088Z,7
2017-05-18T00:56:51.080Z,6.99
2017-05-18T00:57:51.075Z,7
2017-05-18T00:58:51.061Z,6.96
2017-05-18T00:59:51.055Z,6.94
2017-05-18T01:00:51.043Z,6.97
2017-05-18T01:01:51.031Z,7.05
2017-05-18T01:02:51.026Z,7.04
2017-05-18T01:03:51.015Z,7.04
2017-05-18T01:04:51.006Z,6.96
2017-05-18T01:05:50.995Z,6.9
2017-05-18T01:06:50.984Z,6.86
2017-05-18T01:07:50.978Z,6.81
2017-05-18T01:08:50.962Z,6.83
2017-05-18T01:09:50.954Z,6.99
2017-05-18T01:10:50.949Z,6.94
2017-05-18T01:11:50.933Z,6.94
2017-05-18T01:12:50.975Z,7.01
2017-05-18T01:13:50.912Z,6.91
2017-05-18T01:14:50.903Z,6.83
2017-05-18T01:15:50.893Z,6.93
2017-05-18T01:16:50.887Z,6.89
2017-05-18T01:17:50.870Z,6.82
2017-05-18T01:18:50.867Z,6.71
2017-05-18T01:19:50.854Z,6.72
2017-05-18T01:20:50.842Z,6.71
2017-05-18T01:21:50.837Z,6.55
2017-05-18T01:22:50.822Z,6.57
2017-05-18T01:23:50.526Z,6.58
2017-05-18T01:24:50.808Z,6.58
2017-05-18T01:25:50.793Z,6.58
2017-05-18T01:26:50.785Z,6.53
2017-05-18T01:27:50.775Z,6.53
2017-05-18T01:28:50.760Z,6.6
2017-05-18T01:29:50.757Z,6.73
2017-05-18T01:30:50.745Z,6.73
2017-05-18T01:31:50.734Z,6.71
2017-05-18T01:32:50.724Z,6.65
2017-05-18T01:33:50.719Z,6.76
2017-05-18T01:34:50.705Z,6.64
2017-05-18T01:35:50.692Z,6.63
2017-05-18T01:36:50.680Z,6.58
2017-05-18T01:37:50.680Z,6.71
2017-05-18T01:38:50.659Z,6.63
2017-05-18T01:39:50.716Z,6.69
2017-05-18T01:40:50.672Z,6.68
2017-05-18T01:41:50.630Z,6.69
2017-05-18T01:42:50.629Z,6.65
2017-05-18T01:43:50.614Z,6.76
2017-05-18T01:44:50.602Z,6.68
2017-05-18T01:45:50.591Z,6.63
2017-05-18T01:46:50.582Z,6.61
2017-05-18T01:47:50.569Z,6.64
2017-05-18T01:48:50.562Z,6.55
2017-05-18T01:49:50.555Z,6.43
2017-05-18T01:50:50.535Z,6.35
2017-05-18T01:51:50.537Z,6.46
2017-05-18T01:52:50.518Z,6.54
2017-05-18T01:53:50.512Z,6.48
2017-05-18T01:54:50.554Z,6.45
2017-05-18T01:55:50.483Z,6.43
2017-05-18T01:56:50.478Z,6.43
2017-05-18T01:57:50.459Z,6.55
2017-05-18T01:58:50.458Z,6.54
2017-05-18T01:59:50.452Z,6.61
2017-05-18T02:00:50.436Z,6.57
2017-05-18T02:01:50.424Z,6.51
2017-05-18T02:02:50.409Z,6.51
2017-05-18T02:03:50.405Z,6.57
2017-05-18T02:04:50.405Z,6.48
2017-05-18T02:05:50.378Z,6.45
2017-05-18T02:06:50.384Z,6.43
2017-05-18T02:07:50.358Z,6.36
2017-05-18T02:08:50.352Z,6.3
2017-05-18T02:09:50.341Z,6.33
2017-05-18T02:10:50.328Z,6.32
2017-05-18T02:11:50.317Z,6.33
2017-05-18T02:12:50.313Z,6.28
2017-05-18T02:13:50.302Z,6.38
2017-05-18T02:14:50.290Z,6.32
2017-05-18T02:15:50.278Z,6.32
2017-05-18T02:16:50.267Z,6.32
2017-05-18T02:17:50.257Z,6.3
2017-05-18T02:18:50.249Z,6.42
2017-05-18T02:19:50.241Z,6.51
2017-05-18T02:20:50.228Z,6.6
2017-05-18T02:21:50.218Z,6.55
2017-05-18T02:22:50.211Z,6.64
2017-05-18T02:23:50.192Z,6.72
2017-05-18T02:24:50.181Z,6.75
2017-05-18T02:25:50.180Z,6.73
2017-05-18T02:26:50.166Z,6.63
2017-05-18T02:27:50.155Z,6.55
2017-05-18T02:28:50.146Z,6.54
2017-05-18T02:29:50.138Z,6.6
2017-05-18T02:30:50.121Z,6.71
2017-05-18T02:31:50.114Z,6.6
2017-05-18T02:32:50.096Z,6.65
2017-05-18T02:33:50.088Z,6.73
2017-05-18T02:34:50.078Z,6.75
2017-05-18T02:35:49.768Z,6.73
2017-05-18T02:36:50.061Z,6.73
2017-05-18T02:37:50.046Z,6.61
2017-05-18T02:38:50.038Z,6.58
2017-05-18T02:39:50.027Z,6.65
2017-05-18T02:40:50.017Z,6.54
2017-05-18T02:41:50.007Z,6.5
2017-05-18T02:42:49.997Z,6.51
2017-05-18T02:43:49.983Z,6.53
2017-05-18T02:44:50.036Z,6.54
2017-05-18T02:45:49.964Z,6.58
2017-05-18T02:46:49.949Z,6.54
2017-05-18T02:47:49.941Z,6.55
2017-05-18T02:48:49.635Z,6.58
2017-05-18T02:49:49.921Z,6.57
2017-05-18T02:50:49.915Z,6.55
2017-05-18T02:51:49.903Z,6.58
2017-05-18T02:52:49.889Z,6.64
2017-05-18T02:53:49.881Z,6.6
2017-05-18T02:54:49.874Z,6.54
2017-05-18T02:55:49.862Z,6.58
2017-05-18T02:56:49.851Z,6.61
2017-05-18T02:57:49.837Z,6.57
2017-05-18T02:58:49.830Z,6.58
2017-05-18T02:59:49.818Z,6.53
2017-05-18T03:00:49.809Z,6.46
2017-05-18T03:01:49.801Z,6.54
2017-05-18T03:02:49.791Z,6.5
2017-05-18T03:03:49.781Z,6.51
2017-05-18T03:04:49.767Z,6.42
2017-05-18T03:05:49.757Z,6.42
2017-05-18T03:06:49.744Z,6.43
2017-05-18T03:07:49.734Z,6.42
2017-05-18T03:08:49.724Z,6.39
2017-05-18T03:09:49.717Z,6.48
2017-05-18T03:10:49.705Z,6.54
2017-05-18T03:11:49.697Z,6.5
2017-05-18T03:12:49.681Z,6.53
2017-05-18T03:13:49.675Z,6.53
2017-05-18T03:14:49.666Z,6.54
2017-05-18T03:15:49.651Z,6.53
2017-05-18T03:16:49.336Z,6.54
2017-05-18T03:17:49.629Z,6.58
2017-05-18T03:18:49.616Z,6.71
2017-05-18T03:19:49.613Z,6.73
2017-05-18T03:20:49.600Z,6.73
2017-05-18T03:21:49.594Z,6.64
2017-05-18T03:22:49.581Z,6.69
2017-05-18T03:23:49.570Z,6.69
2017-05-18T03:24:49.559Z,6.73
2017-05-18T03:25:49.544Z,6.53
2017-05-18T03:26:49.540Z,6.55
2017-05-18T03:27:49.530Z,6.51
2017-05-18T03:28:49.512Z,6.5
2017-05-18T03:29:49.508Z,6.55
2017-05-18T03:30:49.494Z,6.53
2017-05-18T03:31:49.536Z,6.61
2017-05-18T03:32:49.471Z,6.58
2017-05-18T03:33:49.460Z,6.53
2017-05-18T03:34:49.454Z,6.61
2017-05-18T03:35:49.440Z,6.61
2017-05-18T03:36:49.435Z,6.6
2017-05-18T03:37:49.420Z,6.65
2017-05-18T03:38:49.415Z,6.68
2017-05-18T03:39:49.403Z,6.76
2017-05-18T03:40:49.387Z,6.69
2017-05-18T03:41:49.378Z,6.68
2017-05-18T03:42:49.365Z,6.63
2017-05-18T03:43:49.357Z,6.65
2017-05-18T03:44:49.345Z,6.71
2017-05-18T03:45:49.331Z,6.78
2017-05-18T03:46:49.320Z,6.72
2017-05-18T03:47:49.313Z,6.73
2017-05-18T03:48:49.301Z,6.86
2017-05-18T03:49:49.294Z,6.86
2017-05-18T03:50:49.282Z,6.9
2017-05-18T03:51:49.276Z,6.86
2017-05-18T03:52:49.267Z,7.01
2017-05-18T03:53:49.264Z,6.89
2017-05-18T03:54:49.244Z,6.82
2017-05-18T03:55:49.226Z,6.82
2017-05-18T03:56:49.218Z,6.9
2017-05-18T03:57:49.209Z,6.97
2017-05-18T03:58:49.196Z,6.89
2017-05-18T03:59:49.189Z,6.82
2017-05-18T04:00:49.174Z,6.82
2017-05-18T04:01:49.164Z,6.93
2017-05-18T04:02:49.157Z,6.94
2017-05-18T04:03:49.144Z,6.96
2017-05-18T04:04:49.130Z,7.07
2017-05-18T04:05:49.128Z,6.99
2017-05-18T04:06:49.114Z,6.83
2017-05-18T04:07:49.102Z,6.99
2017-05-18T04:08:49.097Z,7.01
2017-05-18T04:09:48.790Z,6.94
2017-05-18T04:10:49.074Z,6.99
2017-05-18T04:11:49.062Z,6.93
2017-05-18T04:12:49.052Z,6.93
2017-05-18T04:13:49.039Z,6.86
2017-05-18T04:14:49.031Z,6.86
2017-05-18T04:15:49.020Z,6.89
2017-05-18T04:16:49.010Z,6.93
2017-05-18T04:17:49.011Z,6.83
2017-05-18T04:18:48.991Z,6.97
2017-05-18T04:19:48.979Z,7.05
2017-05-18T04:20:48.964Z,7.01
2017-05-18T04:21:48.957Z,7.11
2017-05-18T04:22:48.949Z,6.93
2017-05-18T04:23:48.941Z,6.96
2017-05-18T04:24:48.929Z,6.99
2017-05-18T04:25:48.914Z,6.91
2017-05-18T04:26:48.902Z,6.97
2017-05-18T04:27:48.897Z,6.99
2017-05-18T04:28:48.889Z,7.11
2017-05-18T04:29:48.879Z,6.99
2017-05-18T04:30:48.874Z,7.09
2017-05-18T04:31:48.856Z,7.01
2017-05-18T04:32:48.849Z,6.94
2017-05-18T04:33:48.840Z,6.97
2017-05-18T04:34:48.821Z,7
2017-05-18T04:35:48.814Z,6.99
2017-05-18T04:36:48.808Z,7.23
2017-05-18T04:37:48.494Z,7.51
2017-05-18T04:38:48.785Z,7.7
2017-05-18T04:39:48.773Z,7.92
2017-05-18T04:40:48.765Z,8.12
2017-05-18T04:41:48.757Z,8.24
2017-05-18T04:42:48.741Z,8.18
2017-05-18T04:43:48.731Z,8.2
2017-05-18T04:44:48.724Z,8.37
2017-05-18T04:45:48.711Z,8.47
2017-05-18T04:46:48.702Z,8.31
2017-05-18T04:47:48.691Z,8.5
2017-05-18T04:48:48.687Z,8.54
2017-05-18T04:49:48.673Z,8.5
2017-05-18T04:50:48.660Z,8.49
2017-05-18T04:51:48.656Z,8.55
2017-05-18T04:52:48.640Z,8.71
2017-05-18T04:53:48.329Z,8.89
2017-05-18T04:54:48.624Z,8.97
2017-05-18T04:55:48.611Z,8.64
2017-05-18T04:56:48.605Z,8.8
2017-05-18T04:57:48.590Z,8.91
2017-05-18T04:58:48.583Z,9.04
2017-05-18T04:59:48.576Z,9.1
2017-05-18T05:00:48.566Z,9.2
2017-05-18T05:01:48.567Z,9.24
2017-05-18T05:02:48.542Z,9.24
2017-05-18T05:03:48.535Z,9.27
2017-05-18T05:04:48.530Z,9.1
2017-05-18T05:05:48.517Z,9.24
2017-05-18T05:06:48.507Z,9.24
2017-05-18T05:07:48.497Z,9.31
2017-05-18T05:08:48.487Z,9.5
2017-05-18T05:09:48.481Z,9.48
2017-05-18T05:10:48.470Z,9.32
2017-05-18T05:11:48.458Z,9.65
2017-05-18T05:12:48.452Z,9.99
2017-05-18T05:13:48.442Z,10.06
2017-05-18T05:14:48.433Z,10.07
2017-05-18T05:15:48.425Z,10.06
2017-05-18T05:16:48.416Z,9.63
2017-05-18T05:17:48.403Z,9.62
2017-05-18T05:18:48.403Z,9.86
2017-05-18T05:19:48.390Z,10.17
2017-05-18T05:20:48.377Z,10.04
2017-05-18T05:21:48.370Z,9.65
2017-05-18T05:22:48.361Z,9.5
2017-05-18T05:23:48.048Z,9.74
2017-05-18T05:24:48.341Z,9.68
2017-05-18T05:25:48.340Z,9.6
2017-05-18T05:26:48.322Z,9.59
2017-05-18T05:27:48.315Z,9.37
2017-05-18T05:28:48.308Z,9.35
2017-05-18T05:29:48.296Z,9.22
2017-05-18T05:30:47.983Z,9.13
2017-05-18T05:31:48.283Z,9.35
2017-05-18T05:32:48.277Z,9.23
2017-05-18T05:33:48.259Z,9.1
2017-05-18T05:34:48.254Z,9.48
2017-05-18T05:35:48.245Z,9.52
2017-05-18T05:36:48.234Z,9.67
2017-05-18T05:37:48.231Z,9.67
2017-05-18T05:38:48.215Z,9.73
2017-05-18T05:39:48.206Z,9.65
2017-05-18T05:40:48.191Z,9.73
2017-05-18T05:41:48.194Z,9.85
2017-05-18T05:42:48.182Z,9.78
2017-05-18T05:43:48.176Z,10.24
2017-05-18T05:44:48.162Z,9.99
2017-05-18T05:45:48.152Z,10.06
2017-05-18T05:46:48.142Z,10.02
2017-05-18T05:47:48.133Z,9.88
2017-05-18T05:48:48.127Z,9.68
2017-05-18T05:49:48.118Z,9.71
2017-05-18T05:50:48.106Z,9.71
2017-05-18T05:51:48.099Z,9.77
2017-05-18T05:52:48.093Z,9.86
2017-05-18T05:53:48.079Z,9.88
2017-05-18T05:54:48.071Z,9.96
2017-05-18T05:55:48.061Z,10.01
2017-05-18T05:56:48.053Z,9.95
2017-05-18T05:57:48.043Z,10.02
2017-05-18T05:58:48.035Z,10.09
2017-05-18T05:59:48.024Z,10.07
2017-05-18T06:00:48.020Z,9.96
2017-05-18T06:01:48.011Z,10.09
2017-05-18T06:02:47.997Z,10.46
2017-05-18T06:03:47.991Z,10.52
2017-05-18T06:04:47.987Z,10.46
2017-05-18T06:05:47.971Z,10.55
2017-05-18T06:06:47.969Z,10.69
2017-05-18T06:07:47.961Z,10.68
2017-05-18T06:08:47.950Z,10.84
2017-05-18T06:09:47.954Z,11.06
2017-05-18T06:10:47.932Z,11.21
2017-05-18T06:11:47.925Z,11.39
2017-05-18T06:12:47.919Z,11.48
2017-05-18T06:13:47.908Z,11.35
2017-05-18T06:14:47.899Z,10.78
2017-05-18T06:15:47.892Z,10.29
2017-05-18T06:16:47.892Z,10.09
2017-05-18T06:17:47.874Z,10.43
2017-05-18T06:18:47.870Z,10.65
2017-05-18T06:19:47.893Z,10.76
2017-05-18T06:20:47.852Z,10.76
2017-05-18T06:21:47.845Z,10.63
2017-05-18T06:22:47.833Z,10.43
2017-05-18T06:23:47.841Z,10.1
2017-05-18T06:24:47.822Z,10.06
2017-05-18T06:25:47.805Z,10.14
2017-05-18T06:26:47.805Z,10.14
2017-05-18T06:27:47.795Z,10.13
2017-05-18T06:28:47.792Z,10.09
2017-05-18T06:29:47.781Z,10.13
2017-05-18T06:30:47.774Z,10.57
2017-05-18T06:31:47.765Z,10.8
2017-05-18T06:32:47.754Z,10.51
2017-05-18T06:33:47.741Z,10.29
2017-05-18T06:34:47.742Z,10.17
2017-05-18T06:35:47.731Z,10.32
2017-05-18T06:36:47.724Z,10.25
2017-05-18T06:37:47.720Z,10.04
2017-05-18T06:38:47.711Z,9.77
2017-05-18T06:39:47.704Z,10.14
2017-05-18T06:40:47.693Z,10.34
2017-05-18T06:41:47.382Z,10.25
2017-05-18T06:42:47.674Z,10.25
2017-05-18T06:43:47.669Z,9.99
2017-05-18T06:44:47.664Z,9.88
2017-05-18T06:45:47.652Z,10.13
2017-05-18T06:46:47.646Z,10.72
2017-05-18T06:47:47.632Z,11.24
2017-05-18T06:48:47.627Z,11.26
2017-05-18T06:49:47.617Z,11.57
2017-05-18T06:50:47.614Z,11.57
2017-05-18T06:51:47.608Z,11.36
2017-05-18T06:52:47.601Z,11.39
2017-05-18T06:53:47.589Z,10.98
2017-05-18T06:54:47.588Z,10.83
2017-05-18T06:55:47.577Z,10.7
2017-05-18T06:56:47.567Z,10.58
2017-05-18T06:57:47.565Z,10.66
2017-05-18T06:58:47.556Z,10.63
2017-05-18T06:59:47.547Z,10.35
2017-05-18T07:00:47.603Z,10.01
2017-05-18T07:01:47.533Z,9.73
2017-05-18T07:02:47.535Z,9.7
2017-05-18T07:03:47.522Z,9.7
2017-05-18T07:04:47.510Z,9.85
2017-05-18T07:05:47.504Z,9.98
2017-05-18T07:06:47.195Z,9.99
2017-05-18T07:07:47.488Z,10.06
2017-05-18T07:08:47.482Z,10.44
2017-05-18T07:09:47.471Z,10.7
2017-05-18T07:10:47.465Z,10.44
2017-05-18T07:11:47.464Z,10.13
2017-05-18T07:12:47.448Z,10.06
2017-05-18T07:13:47.451Z,10.01
2017-05-18T07:14:47.438Z,10.16
2017-05-18T07:15:47.428Z,10.72
2017-05-18T07:16:47.418Z,11.77
2017-05-18T07:17:47.408Z,12.96
2017-05-18T07:18:47.403Z,13.17
2017-05-18T07:19:47.398Z,12.89
2017-05-18T07:20:47.386Z,12.08
2017-05-18T07:21:47.381Z,11.56
2017-05-18T07:22:47.373Z,11.56
2017-05-18T07:23:47.366Z,11.69
2017-05-18T07:24:47.361Z,11.81
2017-05-18T07:25:47.349Z,12.13
2017-05-18T07:26:47.345Z,12.11
2017-05-18T07:27:47.340Z,12.08
2017-05-18T07:28:47.331Z,12.21
2017-05-18T07:29:47.329Z,12.61
2017-05-18T07:30:47.314Z,12.96
2017-05-18T07:31:47.307Z,13.44
2017-05-18T07:32:47.301Z,12.77
2017-05-18T07:33:47.297Z,12.18
2017-05-18T07:34:47.292Z,12.63
2017-05-18T07:35:46.985Z,13.44
2017-05-18T07:36:47.286Z,13.75
2017-05-18T07:37:47.270Z,14.31
2017-05-18T07:38:47.325Z,14.8
2017-05-18T07:39:47.256Z,15.68
2017-05-18T07:40:47.257Z,16.03
2017-05-18T07:41:47.247Z,16.01
2017-05-18T07:42:47.247Z,16.77
2017-05-18T07:43:47.241Z,17.47
2017-05-18T07:44:47.239Z,17.35
2017-05-18T07:45:47.231Z,16.82
2017-05-18T07:46:47.229Z,17
2017-05-18T07:47:47.223Z,17.05
2017-05-18T07:48:47.221Z,17.38
2017-05-18T07:49:46.977Z,17.43
2017-05-18T07:50:47.206Z,17.68
2017-05-18T07:51:46.910Z,17.63
2017-05-18T07:52:47.207Z,17.87
2017-05-18T07:53:46.899Z,17.58
2017-05-18T07:54:46.899Z,17.73
2017-05-18T07:55:47.261Z,18.28
2017-05-18T07:56:47.202Z,18.79
2017-05-18T07:57:47.190Z,19.21
2017-05-18T07:58:47.190Z,19.4
2017-05-18T07:59:47.191Z,19.61
2017-05-18T08:00:47.181Z,19.52
2017-05-18T08:01:47.190Z,19.75
2017-05-18T08:02:47.179Z,20.22
2017-05-18T08:03:47.184Z,20.4
2017-05-18T08:04:47.175Z,20.48
2017-05-18T08:05:47.178Z,20.69
2017-05-18T08:06:47.172Z,21.11
2017-05-18T08:07:47.172Z,20.63
2017-05-18T08:08:47.202Z,20.4
2017-05-18T08:09:47.173Z,20.22
2017-05-18T08:10:47.169Z,19.46
2017-05-18T08:11:47.173Z,19.27
2017-05-18T08:12:47.166Z,19.06
2017-05-18T08:13:47.168Z,18.65
2017-05-18T08:14:47.165Z,18.34
2017-05-18T08:15:47.160Z,18.02
2017-05-18T08:16:47.160Z,17.76
2017-05-18T08:17:47.161Z,18.09
2017-05-18T08:18:47.158Z,17.79
2017-05-18T08:19:47.159Z,18.25
2017-05-18T08:20:47.157Z,18.69
2017-05-18T08:21:47.159Z,19.79
2017-05-18T08:22:47.154Z,20.54
2017-05-18T08:23:47.152Z,20.76
2017-05-18T08:24:47.158Z,21.03
2017-05-18T08:25:47.150Z,21.59
2017-05-18T08:26:47.149Z,21.99
2017-05-18T08:27:47.148Z,22.08
2017-05-18T08:28:47.159Z,21.68
2017-05-18T08:29:47.148Z,21.19
2017-05-18T12:27:30.586Z,8.46
2017-05-18T12:28:30.649Z,8.12
2017-05-18T12:29:30.343Z,8.34
2017-05-18T12:30:30.639Z,8.65
2017-05-18T12:31:30.621Z,8.93
2017-05-18T12:32:30.620Z,9.04
2017-05-18T12:33:30.617Z,9.1
2017-05-18T12:34:30.289Z,8.88
2017-05-18T12:35:30.584Z,8.42
2017-05-18T12:36:30.581Z,8.42
2017-05-18T12:37:30.580Z,8.6
2017-05-18T12:38:30.574Z,8.61
2017-05-18T12:39:30.565Z,8.57
2017-05-18T12:40:30.554Z,8.54
2017-05-18T12:41:30.540Z,8.52
2017-05-18T12:42:30.533Z,8.45
2017-05-18T12:43:30.521Z,8.82
2017-05-18T12:44:30.540Z,9
2017-05-18T12:45:30.532Z,9.34
2017-05-18T12:46:30.488Z,9.58
2017-05-18T12:47:30.481Z,9.73
2017-05-18T12:48:30.479Z,9.68
2017-05-18T12:49:30.463Z,9.4
2017-05-18T12:50:30.468Z,8.85
2017-05-18T12:51:30.459Z,8.47
2017-05-18T12:52:30.341Z,9.01
2017-05-18T12:53:30.430Z,9.35
2017-05-18T12:54:30.436Z,9.75
2017-05-18T12:55:30.415Z,10.04
2017-05-18T12:56:30.416Z,9.08
2017-05-18T12:57:30.403Z,8.73
2017-05-18T12:58:30.597Z,8.93
2017-05-18T12:59:30.396Z,9.56
2017-05-18T13:00:30.368Z,9.98
2017-05-18T13:01:30.060Z,9.98
2017-05-18T13:02:30.353Z,10.17
2017-05-18T13:03:30.347Z,10.25
2017-05-18T13:04:30.355Z,9.5
2017-05-18T13:05:30.322Z,8.76
2017-05-18T13:06:30.327Z,8.64
2017-05-18T13:07:30.013Z,8.88
2017-05-18T13:08:30.297Z,9.34
2017-05-18T13:09:30.299Z,9.65
2017-05-18T13:10:29.984Z,9.81
2017-05-18T13:11:30.288Z,10.04
2017-05-18T13:12:30.266Z,10.02
2017-05-18T13:13:30.262Z,9.95
2017-05-18T13:14:30.253Z,9.67
2017-05-18T13:15:30.243Z,9.06
2017-05-18T13:16:30.236Z,8.67
2017-05-18T13:17:29.935Z,8.54
2017-05-18T13:18:30.213Z,8.7
2017-05-18T13:19:30.212Z,8.73
2017-05-18T13:20:30.211Z,8.52
2017-05-18T13:21:30.207Z,8.52
2017-05-18T13:22:30.185Z,8.46
2017-05-18T13:23:30.183Z,8.54
2017-05-18T13:24:30.174Z,8.83
2017-05-18T13:25:30.161Z,9.26
2017-05-18T13:26:30.158Z,9.63
2017-05-18T13:27:30.138Z,9.68
2017-05-18T13:28:30.138Z,9.62
2017-05-18T13:29:30.131Z,9.86
2017-05-18T13:30:30.115Z,9.73
2017-05-18T13:31:30.108Z,9.49
2017-05-18T13:32:30.092Z,9.35
2017-05-18T13:33:30.080Z,9.24
2017-05-18T13:34:30.068Z,8.6
2017-05-18T13:35:30.065Z,8.36
2017-05-18T13:36:30.117Z,8.7
2017-05-18T13:37:30.050Z,8.89
2017-05-18T13:38:30.040Z,9.32
2017-05-18T13:39:30.032Z,9.53
2017-05-18T13:40:30.079Z,9.73
2017-05-18T13:41:30.005Z,9.81
2017-05-18T13:42:30.004Z,10.58
2017-05-18T13:43:29.998Z,10.63
2017-05-18T13:44:29.996Z,10.49
2017-05-18T13:45:29.979Z,10.36
2017-05-18T13:46:29.966Z,10.32
2017-05-18T13:47:29.955Z,9.34
2017-05-18T13:48:29.657Z,8.97
2017-05-18T13:49:29.948Z,9.2
2017-05-18T13:50:29.940Z,9.81
2017-05-18T13:51:29.929Z,9.53
2017-05-18T13:52:29.613Z,8.98
2017-05-18T13:53:29.910Z,8.83
2017-05-18T13:54:29.901Z,9.03
2017-05-18T13:55:29.888Z,9.48
2017-05-18T13:56:29.584Z,9.86
2017-05-18T13:57:29.877Z,10.09
2017-05-18T13:58:29.862Z,10.39
2017-05-18T13:59:29.561Z,9.98
2017-05-18T14:00:29.244Z,10.13
2017-05-18T14:01:29.842Z,10.22
2017-05-18T14:02:29.826Z,10.95
2017-05-18T14:03:29.818Z,11.79
2017-05-18T14:04:29.811Z,12.66
2017-05-18T14:05:29.804Z,12.63
2017-05-18T14:06:29.801Z,13.13
2017-05-18T14:07:29.489Z,12.89
2017-05-18T14:08:29.792Z,12.61
2017-05-18T14:09:29.778Z,12.13
2017-05-18T14:10:29.775Z,11.13
2017-05-18T14:11:29.458Z,10.87
2017-05-18T14:12:29.754Z,10.94
2017-05-18T14:13:29.748Z,11.09
2017-05-18T14:14:29.741Z,11.54
2017-05-18T14:15:29.732Z,11.64
2017-05-18T14:16:29.725Z,11.9
2017-05-18T14:17:29.412Z,12.16
2017-05-18T14:18:29.700Z,12.23
2017-05-18T14:19:29.703Z,11.75
2017-05-18T14:20:29.687Z,11.64
2017-05-18T14:21:29.384Z,11.46
2017-05-18T14:22:29.380Z,11.02
2017-05-18T14:23:29.370Z,10.58
2017-05-18T14:24:29.359Z,10.52
2017-05-18T14:25:29.397Z,10.84
2017-05-18T14:26:29.344Z,11.17
2017-05-18T14:27:29.330Z,12.3
2017-05-18T14:28:29.325Z,13.16
2017-05-18T14:29:29.320Z,13.99
2017-05-18T14:30:29.310Z,13.71
2017-05-18T14:31:29.301Z,13.13
2017-05-18T14:32:29.305Z,12.69
2017-05-18T14:33:29.602Z,12.51
2017-05-18T14:34:29.587Z,12.61
2017-05-18T14:35:29.575Z,12.11
2017-05-18T14:36:29.570Z,11.41
2017-05-18T14:37:29.263Z,11.17
2017-05-18T14:38:29.556Z,11.23
2017-05-18T14:39:29.630Z,11.64
2017-05-18T14:40:29.545Z,11.64
2017-05-18T14:41:29.546Z,11.63
2017-05-18T14:42:29.522Z,11.13
2017-05-18T14:43:29.526Z,11.45
2017-05-18T14:44:29.518Z,11.05
2017-05-18T14:45:29.504Z,10.66
2017-05-18T14:46:29.511Z,10.51
2017-05-18T14:47:29.499Z,10.2
2017-05-18T14:48:29.496Z,9.91
2017-05-18T14:49:29.486Z,9.8
2017-05-18T14:50:29.179Z,10.04
2017-05-18T14:51:29.464Z,10.02
2017-05-18T14:52:29.453Z,10.24
2017-05-18T14:53:29.454Z,10.38
2017-05-18T14:54:29.439Z,10.04
2017-05-18T14:55:29.437Z,10.28
2017-05-18T14:56:29.433Z,10.66
2017-05-18T14:57:29.429Z,10.88
2017-05-18T14:58:29.422Z,11.26
2017-05-18T14:59:29.113Z,11.67
2017-05-18T15:00:29.399Z,11.11
2017-05-18T15:01:29.088Z,10.58
2017-05-18T15:02:29.084Z,10.76
2017-05-18T15:03:29.369Z,10.68
2017-05-18T15:04:29.371Z,10.34
2017-05-18T15:05:29.368Z,10.69
2017-05-18T15:06:29.347Z,10.62
2017-05-18T15:07:29.348Z,10.87
2017-05-18T15:08:29.334Z,11.31
2017-05-18T15:09:29.338Z,11.46
2017-05-18T15:10:29.323Z,11.33
2017-05-18T15:11:29.317Z,11.28
2017-05-18T15:12:29.310Z,10.83
2017-05-18T15:13:29.293Z,10.54
2017-05-18T15:14:29.293Z,10.22
2017-05-18T15:15:29.279Z,9.91
2017-05-18T15:16:29.281Z,10.17
2017-05-18T15:17:29.263Z,10.73
2017-05-18T15:18:29.260Z,10.8
2017-05-18T15:19:29.253Z,10.88
2017-05-18T15:20:29.251Z,11.05
2017-05-18T15:21:29.239Z,11.81
2017-05-18T15:22:29.236Z,11.69
2017-05-18T15:23:28.924Z,11.7
2017-05-18T15:24:29.205Z,11.12
2017-05-18T15:25:29.202Z,10.84
2017-05-18T15:26:29.203Z,10.43
2017-05-18T15:27:29.186Z,10.31
2017-05-18T15:28:29.178Z,9.99
2017-05-18T15:29:28.862Z,10.02
2017-05-18T15:30:28.861Z,9.73
2017-05-18T15:31:29.161Z,9.48
2017-05-18T15:32:29.155Z,9.48
2017-05-18T15:33:29.139Z,9.53
2017-05-18T15:34:29.135Z,9.5
2017-05-18T15:35:29.117Z,9.75
2017-05-18T15:36:29.114Z,9.91
2017-05-18T15:37:29.114Z,10.13
2017-05-18T15:38:29.108Z,10.38
2017-05-18T15:39:29.084Z,10.95
2017-05-18T15:40:29.135Z,10.72
2017-05-18T15:41:29.076Z,10.43
2017-05-18T15:42:29.075Z,10.07
2017-05-18T15:43:29.059Z,10.51
2017-05-18T15:44:29.057Z,10.66
2017-05-18T15:45:29.050Z,10.65
2017-05-18T15:46:28.732Z,10.58
2017-05-18T15:47:29.027Z,10.2
2017-05-18T15:48:29.020Z,9.96
2017-05-18T15:49:29.015Z,9.67
2017-05-18T15:50:29.003Z,9.63
2017-05-18T15:51:29.001Z,9.45
2017-05-18T15:52:28.992Z,9.48
2017-05-18T15:53:28.996Z,9.71
2017-05-18T15:54:28.674Z,9.71
2017-05-18T15:55:28.967Z,9.73
2017-05-18T15:56:28.953Z,9.74
2017-05-18T15:57:28.951Z,9.75
2017-05-18T15:58:28.631Z,9.65
2017-05-18T15:59:28.934Z,9.48
2017-05-18T16:00:28.927Z,9.32
2017-05-18T16:01:28.913Z,9.24
2017-05-18T16:02:28.609Z,9.27
2017-05-18T16:03:28.898Z,9.26
2017-05-18T16:04:28.589Z,9.17
2017-05-18T16:05:28.886Z,8.98
2017-05-18T16:06:28.873Z,8.91
2017-05-18T16:07:28.868Z,8.88
2017-05-18T16:08:28.856Z,8.96
2017-05-18T16:09:28.849Z,9.06
2017-05-18T16:10:28.532Z,9.15
2017-05-18T16:11:28.820Z,9.1
2017-05-18T16:12:28.821Z,9
2017-05-18T16:13:28.824Z,8.96
2017-05-18T16:14:28.815Z,9.1
2017-05-18T16:15:28.487Z,9.24
2017-05-18T16:16:28.787Z,9.34
2017-05-18T16:17:28.783Z,9.32
2017-05-18T16:18:28.771Z,9.08
2017-05-18T16:19:28.780Z,8.86
2017-05-18T16:20:28.743Z,9.06
2017-05-18T16:21:28.747Z,9.13
2017-05-18T16:22:28.743Z,9.1
2017-05-18T16:23:28.721Z,9
2017-05-18T16:24:28.717Z,9.06
2017-05-18T16:25:28.721Z,9.1
2017-05-18T16:26:28.703Z,9.13
2017-05-18T16:27:28.691Z,9.32
2017-05-18T16:28:28.687Z,9.52
2017-05-18T16:29:28.679Z,9.53
2017-05-18T16:30:28.370Z,9.48
2017-05-18T16:31:28.666Z,9.44
2017-05-18T16:32:28.655Z,9.48
2017-05-18T16:33:28.645Z,9.53
2017-05-18T16:34:28.640Z,9.45
2017-05-18T16:35:28.322Z,9.73
2017-05-18T16:36:28.616Z,10.14
2017-05-18T16:37:28.302Z,10.38
2017-05-18T16:38:28.297Z,10.32
2017-05-18T16:39:28.288Z,10.69
2017-05-18T16:40:28.577Z,10.94
2017-05-18T16:41:28.579Z,11.03
2017-05-18T16:42:28.570Z,11.39
2017-05-18T16:43:28.551Z,11.33
2017-05-18T16:44:28.559Z,11.06
2017-05-18T16:45:28.535Z,10.98
2017-05-18T16:46:28.535Z,11.02
2017-05-18T16:47:28.227Z,10.98
2017-05-18T16:48:28.529Z,10.7
2017-05-18T16:49:28.513Z,10.52
2017-05-18T16:50:28.499Z,10.39
2017-05-18T16:51:28.494Z,10.34
2017-05-18T16:52:28.486Z,10.22
2017-05-18T16:53:28.481Z,10.14
2017-05-18T16:54:28.470Z,10.06
2017-05-18T16:55:28.466Z,9.99
2017-05-18T16:56:28.457Z,9.67
2017-05-18T16:57:28.447Z,9.42
2017-05-18T16:58:28.443Z,9.12
2017-05-18T16:59:28.431Z,9.16
2017-05-18T17:00:28.127Z,9.17
2017-05-18T17:01:28.416Z,9.3
2017-05-18T17:02:28.403Z,9.19
2017-05-18T17:03:28.084Z,9.35
2017-05-18T17:04:28.394Z,9.35
2017-05-18T17:05:28.071Z,9.22
2017-05-18T17:06:28.372Z,9.32
2017-05-18T17:07:28.365Z,9.48
2017-05-18T17:08:28.348Z,9.49
2017-05-18T17:09:28.354Z,9.58